createdAt,value
2018-07-14T00:00:51.127Z,984.14
2018-07-14T00:02:01.251Z,984.16
2018-07-14T00:03:11.060Z,984.16
2018-07-14T00:04:21.145Z,984.15
2018-07-14T00:05:31.217Z,984.11
2018-07-14T00:06:41.350Z,984.13
2018-07-14T00:07:51.462Z,984.11
2018-07-14T00:09:01.552Z,984.15
2018-07-14T00:10:11.354Z,984.13
2018-07-14T00:11:20.887Z,984.14
2018-07-14T00:12:30.967Z,984.14
2018-07-14T00:13:41.099Z,984.13
2018-07-14T00:14:51.180Z,984.15
2018-07-14T00:16:01.254Z,984.15
2018-07-14T00:17:10.785Z,984.14
2018-07-14T00:18:20.304Z,984.15
2018-07-14T00:19:30.412Z,984.15
2018-07-14T00:20:40.230Z,984.17
2018-07-14T00:21:50.322Z,984.19
2018-07-14T00:23:00.122Z,984.16
2018-07-14T00:24:10.235Z,984.17
2018-07-14T00:25:19.946Z,984.13
2018-07-14T00:26:30.016Z,984.12
2018-07-14T00:27:40.078Z,984.09
2018-07-14T00:28:50.212Z,984.09
2018-07-14T00:30:00.040Z,984.13
2018-07-14T00:31:09.651Z,984.11
2018-07-14T00:32:19.712Z,984.1
2018-07-14T00:33:28.972Z,984.11
2018-07-14T00:34:39.053Z,984.14
2018-07-14T00:35:49.132Z,984.14
2018-07-14T00:36:59.237Z,984.12
2018-07-14T00:38:09.028Z,984.11
2018-07-14T00:39:19.102Z,984.11
2018-07-14T00:40:28.897Z,984.13
2018-07-14T00:41:39.021Z,984.1
2018-07-14T00:42:49.158Z,984.1
2018-07-14T00:43:58.685Z,984.09
2018-07-14T00:45:07.939Z,984.07
2018-07-14T00:46:17.472Z,984.06
2018-07-14T00:47:27.570Z,984.04
2018-07-14T00:48:37.423Z,984.01
2018-07-14T00:49:47.487Z,984.03
2018-07-14T00:50:57.276Z,983.98
2018-07-14T00:52:07.344Z,983.96
2018-07-14T00:53:16.854Z,983.94
2018-07-14T00:54:26.964Z,983.98
2018-07-14T00:55:37.030Z,983.99
2018-07-14T00:56:46.580Z,983.98
2018-07-14T00:57:56.658Z,983.99
2018-07-14T00:59:06.703Z,984
2018-07-14T01:00:16.550Z,983.98
2018-07-14T01:01:26.082Z,984.01
2018-07-14T01:02:35.593Z,983.97
2018-07-14T01:03:45.679Z,984
2018-07-14T01:04:55.822Z,984.02
2018-07-14T01:06:05.943Z,983.98
2018-07-14T01:07:16.001Z,983.99
2018-07-14T01:08:25.790Z,983.95
2018-07-14T01:09:35.874Z,983.92
2018-07-14T01:10:45.945Z,983.95
2018-07-14T01:11:55.804Z,983.92
2018-07-14T01:13:05.601Z,983.91
2018-07-14T01:14:15.406Z,983.94
2018-07-14T01:15:24.938Z,983.9
2018-07-14T01:16:34.741Z,983.9
2018-07-14T01:17:44.632Z,983.91
2018-07-14T01:18:55.172Z,983.94
2018-07-14T01:20:04.966Z,983.92
2018-07-14T01:21:14.763Z,983.89
2018-07-14T01:22:24.847Z,983.86
2018-07-14T01:23:38.354Z,983.89
2018-07-14T01:24:48.151Z,983.85
2018-07-14T01:25:58.217Z,983.81
2018-07-14T01:27:07.761Z,983.83
2018-07-14T01:28:17.286Z,983.81
2018-07-14T01:29:27.407Z,983.79
2018-07-14T01:30:37.490Z,983.8
2018-07-14T01:31:47.578Z,983.8
2018-07-14T01:32:57.095Z,983.8
2018-07-14T01:34:06.908Z,983.79
2018-07-14T01:35:17.066Z,983.84
2018-07-14T01:36:27.129Z,983.83
2018-07-14T01:37:37.184Z,983.86
2018-07-14T01:38:47.248Z,983.83
2018-07-14T01:39:57.052Z,983.86
2018-07-14T01:41:07.182Z,983.85
2018-07-14T01:42:17.249Z,983.87
2018-07-14T01:43:27.043Z,983.89
2018-07-14T01:44:37.095Z,983.87
2018-07-14T01:45:46.891Z,983.86
2018-07-14T01:46:56.191Z,983.85
2018-07-14T01:48:05.730Z,983.85
2018-07-14T01:49:14.989Z,983.87
2018-07-14T01:50:25.061Z,983.87
2018-07-14T01:51:34.853Z,983.91
2018-07-14T01:52:44.779Z,983.9
2018-07-14T01:53:54.848Z,983.86
2018-07-14T01:55:04.112Z,983.88
2018-07-14T01:56:13.907Z,983.86
2018-07-14T01:57:23.976Z,983.88
2018-07-14T01:58:34.093Z,983.84
2018-07-14T01:59:43.886Z,983.8
2018-07-14T02:00:53.954Z,983.82
2018-07-14T02:02:04.036Z,983.82
2018-07-14T02:03:13.836Z,983.86
2018-07-14T02:04:23.682Z,983.88
2018-07-14T02:05:33.481Z,983.84
2018-07-14T02:06:43.560Z,983.84
2018-07-14T02:07:53.622Z,983.87
2018-07-14T02:09:03.405Z,983.89
2018-07-14T02:10:13.252Z,983.89
2018-07-14T02:11:23.058Z,983.87
2018-07-14T02:12:33.160Z,983.87
2018-07-14T02:13:43.234Z,983.86
2018-07-14T02:14:52.749Z,983.87
2018-07-14T02:16:02.601Z,983.88
2018-07-14T02:17:12.149Z,983.86
2018-07-14T02:18:22.231Z,983.86
2018-07-14T02:19:32.049Z,983.88
2018-07-14T02:20:41.302Z,983.89
2018-07-14T02:21:51.149Z,983.89
2018-07-14T02:23:01.219Z,983.87
2018-07-14T02:24:11.297Z,983.88
2018-07-14T02:25:21.394Z,983.85
2018-07-14T02:26:31.198Z,983.79
2018-07-14T02:27:41.329Z,983.83
2018-07-14T02:28:51.128Z,983.82
2018-07-14T02:30:01.182Z,983.78
2018-07-14T02:31:11.015Z,983.79
2018-07-14T02:32:21.109Z,983.79
2018-07-14T02:33:31.239Z,983.8
2018-07-14T02:34:40.767Z,983.82
2018-07-14T02:35:50.841Z,983.78
2018-07-14T02:37:00.923Z,983.85
2018-07-14T02:38:11.002Z,983.81
2018-07-14T02:39:20.332Z,983.8
2018-07-14T02:40:30.420Z,983.81
2018-07-14T02:41:40.484Z,983.81
2018-07-14T02:42:50.297Z,983.81
2018-07-14T02:44:00.109Z,983.81
2018-07-14T02:45:09.713Z,983.82
2018-07-14T02:46:19.788Z,983.8
2018-07-14T02:47:29.879Z,983.83
2018-07-14T02:48:39.959Z,983.84
2018-07-14T02:49:49.759Z,983.82
2018-07-14T02:50:59.924Z,983.79
2018-07-14T02:52:09.736Z,983.84
2018-07-14T02:53:19.284Z,983.82
2018-07-14T02:54:29.363Z,983.8
2018-07-14T02:55:39.155Z,983.81
2018-07-14T02:56:48.739Z,983.82
2018-07-14T02:57:58.806Z,983.79
2018-07-14T02:59:08.877Z,983.82
2018-07-14T03:04:41.557Z,983.88
2018-07-14T03:05:51.373Z,983.84
2018-07-14T03:07:01.448Z,983.82
2018-07-14T03:08:11.537Z,983.86
2018-07-14T03:09:21.679Z,983.86
2018-07-14T03:10:31.511Z,983.87
2018-07-14T03:11:41.052Z,983.86
2018-07-14T03:12:51.170Z,983.89
2018-07-14T03:14:01.490Z,983.86
2018-07-14T03:15:11.093Z,983.84
2018-07-14T03:16:20.892Z,983.89
2018-07-14T03:17:30.970Z,983.87
2018-07-14T03:18:41.059Z,983.89
2018-07-14T03:19:50.871Z,983.91
2018-07-14T03:21:00.716Z,983.91
2018-07-14T03:22:10.796Z,983.94
2018-07-14T03:23:20.605Z,983.95
2018-07-14T03:24:30.505Z,983.95
2018-07-14T03:25:40.609Z,983.96
2018-07-14T03:26:50.726Z,983.94
2018-07-14T03:28:00.795Z,983.94
2018-07-14T03:29:10.882Z,983.95
2018-07-14T03:30:20.954Z,983.93
2018-07-14T03:31:31.019Z,983.91
2018-07-14T03:32:41.158Z,983.91
2018-07-14T03:33:50.423Z,983.94
2018-07-14T03:35:00.222Z,983.96
2018-07-14T03:36:09.751Z,983.97
2018-07-14T03:37:19.561Z,983.94
2018-07-14T03:38:29.412Z,983.93
2018-07-14T03:39:39.541Z,983.91
2018-07-14T03:40:49.351Z,983.91
2018-07-14T03:41:59.465Z,983.97
2018-07-14T03:43:09.670Z,983.96
2018-07-14T03:44:19.532Z,983.97
2018-07-14T03:45:29.617Z,984
2018-07-14T03:46:39.676Z,983.98
2018-07-14T03:47:49.748Z,983.98
2018-07-14T03:48:59.833Z,983.97
2018-07-14T03:50:09.932Z,983.96
2018-07-14T03:51:19.460Z,983.95
2018-07-14T03:52:29.268Z,983.96
2018-07-14T03:53:39.065Z,983.97
2018-07-14T03:54:48.854Z,984.02
2018-07-14T03:55:58.710Z,984.03
2018-07-14T03:57:08.802Z,984.06
2018-07-14T03:58:18.885Z,984
2018-07-14T03:59:28.998Z,984.03
2018-07-14T04:00:39.077Z,984
2018-07-14T04:01:49.208Z,984.01
2018-07-14T04:02:59.014Z,983.98
2018-07-14T04:04:08.810Z,984
2018-07-14T04:05:18.605Z,984
2018-07-14T04:06:28.212Z,984.01
2018-07-14T04:07:38.860Z,984.01
2018-07-14T04:08:48.663Z,983.99
2018-07-14T04:09:58.753Z,984.03
2018-07-14T04:11:08.556Z,984.04
2018-07-14T04:12:18.079Z,984.02
2018-07-14T04:13:27.947Z,984.02
2018-07-14T04:14:37.737Z,983.99
2018-07-14T04:15:48.215Z,984.01
2018-07-14T04:16:57.742Z,983.99
2018-07-14T04:18:07.834Z,983.95
2018-07-14T04:19:17.963Z,983.94
2018-07-14T04:20:28.031Z,983.94
2018-07-14T04:21:38.102Z,983.95
2018-07-14T04:22:48.207Z,983.95
2018-07-14T04:23:58.267Z,983.92
2018-07-14T04:25:08.120Z,983.95
2018-07-14T04:26:17.992Z,983.93
2018-07-14T04:27:28.065Z,983.91
2018-07-14T04:28:37.876Z,983.93
2018-07-14T04:29:47.679Z,983.96
2018-07-14T04:30:57.809Z,983.91
2018-07-14T04:32:07.344Z,983.92
2018-07-14T04:33:16.597Z,983.95
2018-07-14T04:34:26.383Z,983.97
2018-07-14T04:35:36.472Z,983.98
2018-07-14T04:36:46.593Z,983.98
2018-07-14T04:37:56.136Z,983.98
2018-07-14T04:39:05.672Z,984
2018-07-14T04:40:15.466Z,983.98
2018-07-14T04:41:25.527Z,983.96
2018-07-14T04:42:35.649Z,983.99
2018-07-14T04:43:45.755Z,984
2018-07-14T04:44:55.855Z,983.99
2018-07-14T04:46:05.933Z,984.01
2018-07-14T04:47:15.727Z,984.02
2018-07-14T04:48:25.590Z,984
2018-07-14T04:49:35.394Z,984.04
2018-07-14T04:50:45.212Z,984.03
2018-07-14T04:51:55.027Z,984.04
2018-07-14T04:53:04.887Z,984.02
2018-07-14T04:54:14.991Z,984.04
2018-07-14T04:55:25.079Z,984.05
2018-07-14T04:56:35.154Z,984.04
2018-07-14T04:57:45.242Z,984.07
2018-07-14T04:58:55.326Z,984.03
2018-07-14T05:00:04.921Z,984.02
2018-07-14T05:01:14.727Z,984.03
2018-07-14T05:02:24.242Z,984.03
2018-07-14T05:03:34.052Z,984.01
2018-07-14T05:04:44.142Z,984.05
2018-07-14T05:05:53.982Z,984.04
2018-07-14T05:07:03.502Z,984.07
2018-07-14T05:08:13.295Z,984.05
2018-07-14T05:09:23.091Z,984.04
2018-07-14T05:10:33.156Z,984.03
2018-07-14T05:11:43.269Z,984.1
2018-07-14T05:12:53.343Z,984.07
2018-07-14T05:14:03.412Z,984.04
2018-07-14T05:15:13.228Z,984.06
2018-07-14T05:16:22.796Z,984.06
2018-07-14T05:17:32.653Z,984.12
2018-07-14T05:18:42.729Z,984.06
2018-07-14T05:19:52.792Z,984.12
2018-07-14T05:21:02.329Z,984.1
2018-07-14T05:22:12.414Z,984.11
2018-07-14T05:23:22.001Z,984.12
2018-07-14T05:24:31.805Z,984.1
2018-07-14T05:25:41.617Z,984.13
2018-07-14T05:26:51.451Z,984.08
2018-07-14T05:28:01.231Z,984.16
2018-07-14T05:29:10.812Z,984.13
2018-07-14T05:30:20.882Z,984.11
2018-07-14T05:31:30.956Z,984.12
2018-07-14T05:32:41.047Z,984.15
2018-07-14T05:33:51.126Z,984.15
2018-07-14T05:35:01.243Z,984.13
2018-07-14T05:36:11.055Z,984.17
2018-07-14T05:37:20.322Z,984.15
2018-07-14T05:38:30.392Z,984.15
2018-07-14T05:39:39.373Z,984.17
2018-07-14T05:40:48.691Z,984.14
2018-07-14T05:41:58.781Z,984.16
2018-07-14T05:43:08.319Z,984.17
2018-07-14T05:44:18.117Z,984.2
2018-07-14T05:45:27.916Z,984.2
2018-07-14T05:46:37.556Z,984.21
2018-07-14T05:47:47.641Z,984.22
2018-07-14T05:48:57.432Z,984.23
2018-07-14T05:50:07.223Z,984.21
2018-07-14T05:51:17.039Z,984.19
2018-07-14T05:52:27.149Z,984.23
2018-07-14T05:53:37.220Z,984.23
2018-07-14T05:54:47.308Z,984.21
2018-07-14T05:55:57.369Z,984.2
2018-07-14T05:57:07.455Z,984.24
2018-07-14T05:58:17.585Z,984.24
2018-07-14T05:59:27.381Z,984.23
2018-07-14T06:00:37.466Z,984.26
2018-07-14T06:01:46.708Z,984.21
2018-07-14T06:02:56.769Z,984.25
2018-07-14T06:04:06.615Z,984.26
2018-07-14T06:05:16.684Z,984.25
2018-07-14T06:06:26.508Z,984.22
2018-07-14T06:07:36.347Z,984.2
2018-07-14T06:08:46.620Z,984.23
2018-07-14T06:09:56.742Z,984.19
2018-07-14T06:11:06.563Z,984.22
2018-07-14T06:12:16.648Z,984.23
2018-07-14T06:13:26.711Z,984.18
2018-07-14T06:14:36.795Z,984.21
2018-07-14T06:15:46.636Z,984.19
2018-07-14T06:16:56.730Z,984.19
2018-07-14T06:18:06.543Z,984.2
2018-07-14T06:19:16.171Z,984.18
2018-07-14T06:20:26.076Z,984.17
2018-07-14T06:21:36.271Z,984.15
2018-07-14T06:22:46.117Z,984.18
2018-07-14T06:23:55.908Z,984.12
2018-07-14T06:25:06.003Z,984.1
2018-07-14T06:26:15.580Z,984.14
2018-07-14T06:27:25.153Z,984.16
2018-07-14T06:28:35.217Z,984.15
2018-07-14T06:29:45.031Z,984.12
2018-07-14T06:30:55.112Z,984.14
2018-07-14T06:32:04.912Z,984.11
2018-07-14T06:33:14.845Z,984.08
2018-07-14T06:34:24.660Z,984.1
2018-07-14T06:35:34.458Z,984.12
2018-07-14T06:36:43.998Z,984.14
2018-07-14T06:37:53.545Z,984.17
2018-07-14T06:39:03.936Z,984.18
2018-07-14T06:40:14.269Z,984.15
2018-07-14T06:41:24.017Z,984.18
2018-07-14T06:42:33.819Z,984.21
2018-07-14T06:43:43.625Z,984.19
2018-07-14T06:44:53.822Z,984.23
2018-07-14T06:46:03.948Z,984.16
2018-07-14T06:47:14.035Z,984.21
2018-07-14T06:48:23.845Z,984.24
2018-07-14T06:49:33.920Z,984.24
2018-07-14T06:50:43.834Z,984.23
2018-07-14T06:51:53.347Z,984.24
2018-07-14T06:53:03.157Z,984.26
2018-07-14T06:54:12.953Z,984.24
2018-07-14T06:55:23.119Z,984.28
2018-07-14T06:56:32.701Z,984.27
2018-07-14T06:57:42.514Z,984.24
2018-07-14T06:58:52.587Z,984.25
2018-07-14T07:00:02.112Z,984.24
2018-07-14T07:01:11.921Z,984.23
2018-07-14T07:02:21.499Z,984.27
2018-07-14T07:03:31.569Z,984.28
2018-07-14T07:04:41.371Z,984.23
2018-07-14T07:05:50.914Z,984.23
2018-07-14T07:07:00.999Z,984.24
2018-07-14T07:08:10.842Z,984.25
2018-07-14T07:09:20.648Z,984.23
2018-07-14T07:10:30.192Z,984.24
2018-07-14T07:11:40.001Z,984.2
2018-07-14T07:12:49.522Z,984.2
2018-07-14T07:13:59.638Z,984.2
2018-07-14T07:15:09.504Z,984.23
2018-07-14T07:16:19.576Z,984.23
2018-07-14T07:17:29.660Z,984.22
2018-07-14T07:18:39.473Z,984.22
2018-07-14T07:19:49.591Z,984.2
2018-07-14T07:20:59.665Z,984.2
2018-07-14T07:22:09.761Z,984.2
2018-07-14T07:23:19.832Z,984.19
2018-07-14T07:24:29.894Z,984.16
2018-07-14T07:25:40.010Z,984.16
2018-07-14T07:26:50.085Z,984.16
2018-07-14T07:28:00.162Z,984.13
2018-07-14T07:29:10.212Z,984.13
2018-07-14T07:30:20.275Z,984.14
2018-07-14T07:31:30.115Z,984.14
2018-07-14T07:32:40.191Z,984.1
2018-07-14T07:33:50.306Z,984.15
2018-07-14T07:35:00.765Z,984.06
2018-07-14T07:36:10.615Z,984.12
2018-07-14T07:37:20.511Z,984.11
2018-07-14T07:38:30.584Z,984.11
2018-07-14T07:39:40.644Z,984.14
2018-07-14T07:40:50.445Z,984.11
2018-07-14T07:42:00.521Z,984.15
2018-07-14T07:43:10.501Z,984.11
2018-07-14T07:44:20.806Z,984.07
2018-07-14T07:45:30.604Z,984.06
2018-07-14T07:46:40.700Z,984.08
2018-07-14T07:47:50.795Z,984.07
2018-07-14T07:49:00.928Z,984.03
2018-07-14T07:50:11.012Z,984.04
2018-07-14T07:51:21.099Z,984.04
2018-07-14T07:52:31.187Z,984.03
2018-07-14T07:53:41.256Z,984.03
2018-07-14T07:54:51.098Z,984.05
2018-07-14T07:56:01.162Z,984.02
2018-07-14T07:57:11.235Z,984.01
2018-07-14T07:58:21.314Z,984.01
2018-07-14T07:59:31.409Z,984.02
2018-07-14T08:00:41.268Z,984.03
2018-07-14T08:01:51.073Z,984
2018-07-14T08:03:00.610Z,983.99
2018-07-14T08:04:10.689Z,984.05
2018-07-14T08:05:19.959Z,984.04
2018-07-14T08:06:29.824Z,984.01
2018-07-14T08:07:39.905Z,983.99
2018-07-14T08:08:49.993Z,983.99
2018-07-14T08:10:00.092Z,983.99
2018-07-14T08:11:10.170Z,983.97
2018-07-14T08:12:19.488Z,984.01
2018-07-14T08:13:29.567Z,983.98
2018-07-14T08:14:39.370Z,983.92
2018-07-14T08:15:48.913Z,983.96
2018-07-14T08:16:58.834Z,983.98
2018-07-14T08:18:08.428Z,983.97
2018-07-14T08:19:17.957Z,983.94
2018-07-14T08:20:28.026Z,983.93
2018-07-14T08:21:37.841Z,983.95
2018-07-14T08:22:47.696Z,984
2018-07-14T08:23:58.546Z,983.97
2018-07-14T08:25:08.085Z,983.99
2018-07-14T08:26:18.148Z,984.01
2018-07-14T08:27:28.252Z,983.97
2018-07-14T08:28:38.345Z,983.99
2018-07-14T08:29:48.224Z,983.98
2018-07-14T08:30:58.013Z,983.98
2018-07-14T08:32:07.541Z,984.01
2018-07-14T08:33:17.776Z,984.04
2018-07-14T08:34:27.839Z,983.97
2018-07-14T08:35:37.721Z,983.97
2018-07-14T08:36:47.262Z,983.96
2018-07-14T08:37:57.360Z,983.99
2018-07-14T08:39:07.111Z,983.95
2018-07-14T08:40:17.199Z,983.95
2018-07-14T08:41:27.358Z,983.91
2018-07-14T08:42:37.450Z,983.93
2018-07-14T08:43:47.564Z,983.92
2018-07-14T08:44:57.804Z,983.94
2018-07-14T08:46:07.616Z,983.9
2018-07-14T08:47:17.482Z,983.89
2018-07-14T08:48:27.561Z,983.9
2018-07-14T08:49:37.381Z,983.89
2018-07-14T08:50:47.459Z,983.88
2018-07-14T08:51:56.980Z,983.9
2018-07-14T08:53:06.282Z,983.87
2018-07-14T08:54:16.354Z,983.87
2018-07-14T08:55:26.154Z,983.88
2018-07-14T08:56:36.208Z,983.9
2018-07-14T08:57:46.287Z,983.9
2018-07-14T08:58:56.406Z,983.88
2018-07-14T09:00:06.486Z,983.88
2018-07-14T09:01:15.751Z,983.89
2018-07-14T09:02:25.865Z,983.88
2018-07-14T09:03:36.029Z,983.86
2018-07-14T09:04:46.544Z,983.85
2018-07-14T09:05:56.610Z,983.85
2018-07-14T09:07:06.690Z,983.83
2018-07-14T09:08:16.777Z,983.84
2018-07-14T09:09:26.312Z,983.85
2018-07-14T09:10:36.159Z,983.88
2018-07-14T09:11:46.223Z,983.85
2018-07-14T09:12:56.356Z,983.87
2018-07-14T09:14:06.211Z,983.86
2018-07-14T09:15:16.287Z,983.82
2018-07-14T09:16:26.143Z,983.81
2018-07-14T09:17:36.429Z,983.81
2018-07-14T09:18:46.248Z,983.83
2018-07-14T09:19:56.065Z,983.82
2018-07-14T09:21:05.895Z,983.8
2018-07-14T09:22:16.098Z,983.82
2018-07-14T09:23:26.201Z,983.81
2018-07-14T09:24:35.730Z,983.78
2018-07-14T09:25:45.808Z,983.79
2018-07-14T09:26:55.596Z,983.74
2018-07-14T09:28:05.731Z,983.74
2018-07-14T09:29:15.541Z,983.75
2018-07-14T09:30:25.623Z,983.69
2018-07-14T09:31:34.889Z,983.68
2018-07-14T09:32:44.157Z,983.69
2018-07-14T09:33:53.468Z,983.7
2018-07-14T09:35:03.544Z,983.68
2018-07-14T09:36:13.357Z,983.65
2018-07-14T09:37:23.457Z,983.63
2018-07-14T09:38:33.526Z,983.66
2018-07-14T09:39:43.370Z,983.63
2018-07-14T09:40:53.178Z,983.65
2018-07-14T09:42:03.251Z,983.58
2018-07-14T09:43:13.058Z,983.62
2018-07-14T09:44:22.876Z,983.6
2018-07-14T09:45:32.894Z,983.61
2018-07-14T09:46:42.994Z,983.59
2018-07-14T09:47:53.075Z,983.58
2018-07-14T09:49:02.346Z,983.56
2018-07-14T09:50:12.435Z,983.56
2018-07-14T09:51:22.560Z,983.55
2018-07-14T09:52:32.427Z,983.57
2018-07-14T09:53:42.240Z,983.53
2018-07-14T09:54:52.363Z,983.55
2018-07-14T09:56:02.162Z,983.52
2018-07-14T09:57:11.754Z,983.49
2018-07-14T09:58:21.289Z,983.51
2018-07-14T09:59:31.375Z,983.46
2018-07-14T10:00:41.437Z,983.48
2018-07-14T10:01:51.500Z,983.44
2018-07-14T10:03:01.643Z,983.41
2018-07-14T10:04:11.170Z,983.42
2018-07-14T10:05:21.242Z,983.42
2018-07-14T10:06:31.308Z,983.41
2018-07-14T10:07:41.394Z,983.43
2018-07-14T10:08:51.257Z,983.44
2018-07-14T10:10:01.368Z,983.4
2018-07-14T10:11:11.941Z,983.39
2018-07-14T10:12:22.033Z,983.35
2018-07-14T10:13:31.835Z,983.37
2018-07-14T10:14:41.972Z,983.34
2018-07-14T10:15:52.125Z,983.33
2018-07-14T10:17:02.182Z,983.34
2018-07-14T10:18:12.031Z,983.34
2018-07-14T10:19:21.848Z,983.32
2018-07-14T10:20:31.694Z,983.26
2018-07-14T10:21:41.496Z,983.27
2018-07-14T10:22:51.026Z,983.22
2018-07-14T10:24:01.112Z,983.26
2018-07-14T10:25:11.038Z,983.24
2018-07-14T10:26:22.002Z,983.27
2018-07-14T10:27:32.087Z,983.25
2018-07-14T10:28:41.907Z,983.24
2018-07-14T10:29:51.724Z,983.2
2018-07-14T10:31:01.792Z,983.22
2018-07-14T10:32:11.929Z,983.22
2018-07-14T10:33:21.750Z,983.18
2018-07-14T10:34:31.589Z,983.16
2018-07-14T10:35:41.675Z,983.16
2018-07-14T10:36:51.759Z,983.16
2018-07-14T10:38:01.903Z,983.15
2018-07-14T10:39:11.425Z,983.13
2018-07-14T10:40:21.229Z,983.13
2018-07-14T10:41:31.316Z,983.09
2018-07-14T10:42:41.406Z,983.06
2018-07-14T10:43:51.518Z,983.06
2018-07-14T10:45:01.576Z,983.05
2018-07-14T10:46:11.137Z,983.04
2018-07-14T10:47:20.663Z,982.97
2018-07-14T10:48:30.207Z,983
2018-07-14T10:49:40.112Z,982.98
2018-07-14T10:50:49.644Z,982.96
2018-07-14T10:51:59.171Z,982.96
2018-07-14T10:53:08.977Z,982.94
2018-07-14T10:54:18.794Z,982.94
2018-07-14T10:55:28.383Z,982.89
2018-07-14T10:56:38.461Z,982.93
2018-07-14T10:57:48.263Z,982.93
2018-07-14T10:58:57.811Z,982.92
2018-07-14T11:00:07.594Z,982.9
2018-07-14T11:01:17.727Z,982.89
2018-07-14T11:02:27.803Z,982.83
2018-07-14T11:03:37.065Z,982.84
2018-07-14T11:04:47.151Z,982.87
2018-07-14T11:05:56.426Z,982.86
2018-07-14T11:07:06.294Z,982.86
2018-07-14T11:08:16.141Z,982.83
2018-07-14T11:09:26.210Z,982.85
2018-07-14T11:10:35.761Z,982.83
2018-07-14T11:11:45.844Z,982.86
2018-07-14T11:12:55.965Z,982.8
2018-07-14T11:14:06.061Z,982.82
2018-07-14T11:15:16.134Z,982.78
2018-07-14T11:16:26.223Z,982.72
2018-07-14T11:17:36.313Z,982.73
2018-07-14T11:18:46.635Z,982.77
2018-07-14T11:19:56.697Z,982.73
2018-07-14T11:21:06.237Z,982.77
2018-07-14T11:22:16.299Z,982.74
2018-07-14T11:23:26.382Z,982.74
2018-07-14T11:24:36.257Z,982.71
2018-07-14T11:25:46.338Z,982.7
2018-07-14T11:26:56.420Z,982.75
2018-07-14T11:28:05.957Z,982.72
2018-07-14T11:29:16.026Z,982.75
2018-07-14T11:30:26.162Z,982.77
2018-07-14T11:31:35.966Z,982.79
2018-07-14T11:32:46.056Z,982.76
2018-07-14T11:33:56.124Z,982.75
2018-07-14T11:35:06.206Z,982.76
2018-07-14T11:36:16.322Z,982.74
2018-07-14T11:37:26.391Z,982.68
2018-07-14T11:38:36.096Z,982.69
2018-07-14T11:39:46.171Z,982.7
2018-07-14T11:40:56.242Z,982.68
2018-07-14T11:42:06.134Z,982.63
2018-07-14T11:43:16.319Z,982.69
2018-07-14T11:44:26.395Z,982.7
2018-07-14T11:45:36.456Z,982.7
2018-07-14T11:46:46.539Z,982.69
2018-07-14T11:47:56.202Z,982.64
2018-07-14T11:49:06.779Z,982.63
2018-07-14T11:50:16.593Z,982.58
2018-07-14T11:51:26.139Z,982.59
2018-07-14T11:52:35.951Z,982.6
2018-07-14T11:53:46.079Z,982.55
2018-07-14T11:54:56.169Z,982.53
2018-07-14T11:56:06.248Z,982.59
2018-07-14T11:57:16.343Z,982.61
2018-07-14T11:58:26.412Z,982.55
2018-07-14T11:59:35.996Z,982.62
2018-07-14T12:00:46.092Z,982.53
2018-07-14T12:01:55.931Z,982.64
2018-07-14T12:03:05.980Z,982.54
2018-07-14T12:04:15.805Z,982.76
2018-07-14T12:05:25.688Z,982.48
2018-07-14T12:06:35.503Z,982.48
2018-07-14T12:07:45.576Z,982.63
2018-07-14T12:08:55.396Z,982.67
2018-07-14T12:10:04.935Z,982.63
2018-07-14T12:11:14.797Z,982.61
2018-07-14T12:12:24.878Z,982.46
2018-07-14T12:13:34.980Z,982.24
2018-07-14T12:14:44.532Z,982.36
2018-07-14T12:15:54.342Z,982.65
2018-07-14T12:17:04.224Z,982.57
2018-07-14T12:18:14.053Z,982.57
2018-07-14T12:19:23.304Z,982.5
2018-07-14T12:20:33.112Z,982.46
2018-07-14T12:21:43.194Z,982.49
2018-07-14T12:22:53.329Z,982.49
2018-07-14T12:24:03.158Z,982.48
2018-07-14T12:25:12.696Z,982.41
2018-07-14T12:26:22.791Z,982.43
2018-07-14T12:27:32.933Z,982.39
2018-07-14T12:28:43.185Z,982.38
2018-07-14T12:29:53.270Z,982.38
2018-07-14T12:31:03.220Z,982.36
2018-07-14T12:32:12.775Z,982.3
2018-07-14T12:33:22.595Z,982.32
2018-07-14T12:34:32.472Z,982.26
2018-07-14T12:35:42.284Z,982.29
2018-07-14T12:36:51.578Z,982.34
2018-07-14T12:38:01.659Z,982.27
2018-07-14T12:39:11.471Z,982.27
2018-07-14T12:40:21.599Z,982.27
2018-07-14T12:41:31.421Z,982.28
2018-07-14T12:42:41.519Z,982.24
2018-07-14T12:43:51.609Z,982.23
2018-07-14T12:45:01.437Z,982.22
2018-07-14T12:46:11.310Z,982.21
2018-07-14T12:47:21.400Z,982.12
2018-07-14T12:48:31.219Z,982.15
2018-07-14T12:49:41.319Z,982.12
2018-07-14T12:50:51.412Z,982.16
2018-07-14T12:52:01.035Z,982.12
2018-07-14T12:53:10.888Z,982.09
2018-07-14T12:54:20.170Z,982.11
2018-07-14T12:55:29.969Z,982.1
2018-07-14T12:56:39.248Z,982.12
2018-07-14T12:57:49.125Z,982.11
2018-07-14T12:58:58.667Z,982.08
2018-07-14T13:00:08.546Z,982.07
2018-07-14T13:01:18.602Z,981.75
2018-07-14T13:02:28.672Z,981.78
2018-07-14T13:03:38.812Z,982.04
2018-07-14T13:04:48.878Z,981.98
2018-07-14T13:05:58.958Z,981.95
2018-07-14T13:07:08.781Z,981.96
2018-07-14T13:08:18.873Z,981.91
2018-07-14T13:09:28.471Z,981.85
2018-07-14T13:10:38.299Z,981.77
2018-07-14T13:11:48.384Z,981.83
2018-07-14T13:12:58.209Z,981.57
2018-07-14T13:14:08.021Z,981.82
2018-07-14T13:15:18.159Z,981.82
2018-07-14T13:16:27.970Z,981.51
2018-07-14T13:17:37.802Z,981.41
2018-07-14T13:18:47.891Z,981.51
2018-07-14T13:19:58.004Z,981.88
2018-07-14T13:21:07.874Z,981.84
2018-07-14T13:22:17.961Z,981.83
2018-07-14T13:23:28.045Z,981.79
2018-07-14T13:24:38.120Z,981.41
2018-07-14T13:25:48.220Z,981.89
2018-07-14T13:26:58.417Z,981.41
2018-07-14T13:28:07.986Z,981.45
2018-07-14T13:29:17.805Z,981.55
2018-07-14T13:30:27.625Z,981.84
2018-07-14T13:31:37.450Z,981.96
2018-07-14T13:32:47.051Z,981.96
2018-07-14T13:33:57.114Z,981.97
2018-07-14T13:35:06.650Z,981.92
2018-07-14T13:36:16.530Z,981.88
2018-07-14T13:37:26.564Z,981.91
2018-07-14T13:38:36.421Z,981.53
2018-07-14T13:39:56.924Z,981.92
2018-07-14T13:41:07.038Z,981.91
2018-07-14T13:42:16.916Z,981.92
2018-07-14T13:43:26.745Z,981.99
2018-07-14T13:44:36.623Z,981.87
2018-07-14T13:45:46.440Z,981.31
2018-07-14T13:46:56.532Z,981.44
2018-07-14T13:48:06.358Z,982
2018-07-14T13:49:16.175Z,981.43
2018-07-14T13:50:26.310Z,981.53
2018-07-14T13:51:36.398Z,982.05
2018-07-14T13:52:46.500Z,981.94
2018-07-14T13:53:56.609Z,981.41
2018-07-14T13:55:06.693Z,981.43
2018-07-14T13:56:16.560Z,981.42
2018-07-14T13:57:26.386Z,981.87
2018-07-14T13:58:36.220Z,981.91
2018-07-14T13:59:46.316Z,981.96
2018-07-14T14:00:56.134Z,981.9
2018-07-14T14:02:06.305Z,981.9
2018-07-14T14:03:16.392Z,981.87
2018-07-14T14:04:26.212Z,981.93
2018-07-14T14:05:35.758Z,981.83
2018-07-14T14:06:45.874Z,981.81
2018-07-14T14:07:56.008Z,981.79
2018-07-14T14:09:06.075Z,981.84
2018-07-14T14:10:15.900Z,981.79
2018-07-14T14:11:24.945Z,981.75
2018-07-14T14:12:35.113Z,981.68
2018-07-14T14:13:45.256Z,981.79
2018-07-14T14:14:55.347Z,981.88
2018-07-14T14:16:05.450Z,981.81
2018-07-14T14:17:15.004Z,981.74
2018-07-14T14:18:25.090Z,981.75
2018-07-14T14:19:34.700Z,981.82
2018-07-14T14:20:44.239Z,981.95
2018-07-14T14:21:53.790Z,982.14
2018-07-14T14:23:03.594Z,982.34
2018-07-14T14:24:13.691Z,982.15
2018-07-14T14:25:23.299Z,981.99
2018-07-14T14:26:33.387Z,982.12
2018-07-14T14:27:43.193Z,982.37
2018-07-14T14:28:53.275Z,982.6
2018-07-14T14:30:03.379Z,982.82
2018-07-14T14:31:13.532Z,983.08
2018-07-14T14:32:23.349Z,983.12
2018-07-14T14:33:33.164Z,983.09
2018-07-14T14:34:43.246Z,983.17
2018-07-14T14:35:53.319Z,983.04
2018-07-14T14:37:03.463Z,982.85
2018-07-14T14:38:13.566Z,982.86
2018-07-14T14:39:23.381Z,982.88
2018-07-14T14:40:33.479Z,982.94